sensor_id;sensor_type;location;lat;lon;timestamp;temperature;humidity
8008;DHT22;4049;49.468;11.200;2022-11-03T00:01:30;3.30;99.90
8008;DHT22;4049;49.468;11.200;2022-11-03T00:03:57;3.30;99.90
8008;DHT22;4049;49.468;11.200;2022-11-03T00:06:24;3.30;99.90
8008;DHT22;4049;49.468;11.200;2022-11-03T00:08:52;3.30;99.90
8008;DHT22;4049;49.468;11.200;2022-11-03T00:11:18;3.30;99.90
8008;DHT22;4049;49.468;11.200;2022-11-03T00:13:45;3.30;99.90
8008;DHT22;4049;49.468;11.200;2022-11-03T00:16:12;3.30;99.90
8008;DHT22;4049;49.468;11.200;2022-11-03T00:18:39;3.30;99.90
8008;DHT22;4049;49.468;11.200;2022-11-03T00:21:07;3.30;99.90
8008;DHT22;4049;49.468;11.200;2022-11-03T00:23:36;3.30;99.90
8008;DHT22;4049;49.468;11.200;2022-11-03T00:26:09;3.40;99.90
8008;DHT22;4049;49.468;11.200;2022-11-03T00:28:38;3.20;99.90
8008;DHT22;4049;49.468;11.200;2022-11-03T00:31:07;3.20;99.90
8008;DHT22;4049;49.468;11.200;2022-11-03T00:33:34;3.20;99.90
8008;DHT22;4049;49.468;11.200;2022-11-03T00:36:02;3.20;99.90
8008;DHT22;4049;49.468;11.200;2022-11-03T00:38:29;3.20;99.90
8008;DHT22;4049;49.468;11.200;2022-11-03T00:40:57;3.20;99.90
8008;DHT22;4049;49.468;11.200;2022-11-03T00:43:27;3.30;99.90
8008;DHT22;4049;49.468;11.200;2022-11-03T00:45:54;3.20;99.90
8008;DHT22;4049;49.468;11.200;2022-11-03T00:48:22;3.20;99.90
8008;DHT22;4049;49.468;11.200;2022-11-03T00:50:59;3.20;99.90
8008;DHT22;4049;49.468;11.200;2022-11-03T00:53:26;3.20;99.90
8008;DHT22;4049;49.468;11.200;2022-11-03T00:55:53;3.20;99.90
8008;DHT22;4049;49.468;11.200;2022-11-03T00:58:20;3.20;99.90
8008;DHT22;4049;49.468;11.200;2022-11-03T01:00:48;3.20;99.90
8008;DHT22;4049;49.468;11.200;2022-11-03T01:03:15;3.10;99.90
8008;DHT22;4049;49.468;11.200;2022-11-03T01:05:42;3.20;99.90
8008;DHT22;4049;49.468;11.200;2022-11-03T01:08:31;3.20;99.90
8008;DHT22;4049;49.468;11.200;2022-11-03T01:11:04;3.20;99.90
8008;DHT22;4049;49.468;11.200;2022-11-03T01:13:48;3.20;99.90
8008;DHT22;4049;49.468;11.200;2022-11-03T01:16:16;3.10;99.90
8008;DHT22;4049;49.468;11.200;2022-11-03T01:18:43;3.10;99.90
8008;DHT22;4049;49.468;11.200;2022-11-03T01:21:10;3.10;99.90
8008;DHT22;4049;49.468;11.200;2022-11-03T01:23:37;3.10;99.90
8008;DHT22;4049;49.468;11.200;2022-11-03T01:26:04;3.00;99.90
8008;DHT22;4049;49.468;11.200;2022-11-03T01:28:32;3.00;99.90
8008;DHT22;4049;49.468;11.200;2022-11-03T01:31:02;3.00;99.90
8008;DHT22;4049;49.468;11.200;2022-11-03T01:33:30;3.00;99.90
8008;DHT22;4049;49.468;11.200;2022-11-03T01:35:58;2.90;99.90
8008;DHT22;4049;49.468;11.200;2022-11-03T01:38:25;2.90;99.90
8008;DHT22;4049;49.468;11.200;2022-11-03T01:40:51;2.90;99.90
8008;DHT22;4049;49.468;11.200;2022-11-03T01:43:20;2.90;99.90
8008;DHT22;4049;49.468;11.200;2022-11-03T01:45:50;2.90;99.90
8008;DHT22;4049;49.468;11.200;2022-11-03T01:48:19;2.90;99.90
8008;DHT22;4049;49.468;11.200;2022-11-03T01:50:49;2.90;99.90
8008;DHT22;4049;49.468;11.200;2022-11-03T01:53:17;2.80;99.90
8008;DHT22;4049;49.468;11.200;2022-11-03T01:55:46;2.80;99.90
8008;DHT22;4049;49.468;11.200;2022-11-03T01:58:16;2.80;99.90
8008;DHT22;4049;49.468;11.200;2022-11-03T02:00:47;2.90;99.90
8008;DHT22;4049;49.468;11.200;2022-11-03T02:03:14;2.90;99.90
8008;DHT22;4049;49.468;11.200;2022-11-03T02:05:44;2.80;99.90
8008;DHT22;4049;49.468;11.200;2022-11-03T02:08:16;2.80;99.90
8008;DHT22;4049;49.468;11.200;2022-11-03T02:10:45;2.70;99.90
8008;DHT22;4049;49.468;11.200;2022-11-03T02:13:17;2.70;99.90
8008;DHT22;4049;49.468;11.200;2022-11-03T02:15:45;2.60;99.90
8008;DHT22;4049;49.468;11.200;2022-11-03T02:18:13;2.60;99.90
8008;DHT22;4049;49.468;11.200;2022-11-03T02:20:41;2.60;99.90
8008;DHT22;4049;49.468;11.200;2022-11-03T02:23:25;2.60;99.90
8008;DHT22;4049;49.468;11.200;2022-11-03T02:25:57;2.50;99.90
8008;DHT22;4049;49.468;11.200;2022-11-03T02:28:26;2.50;99.90
8008;DHT22;4049;49.468;11.200;2022-11-03T02:31:01;2.50;99.90
8008;DHT22;4049;49.468;11.200;2022-11-03T02:33:40;2.50;99.90
8008;DHT22;4049;49.468;11.200;2022-11-03T02:36:12;2.50;99.90
8008;DHT22;4049;49.468;11.200;2022-11-03T02:38:46;2.50;99.90
8008;DHT22;4049;49.468;11.200;2022-11-03T02:41:15;2.40;99.90
8008;DHT22;4049;49.468;11.200;2022-11-03T02:43:44;2.40;99.90
8008;DHT22;4049;49.468;11.200;2022-11-03T02:46:13;2.50;99.90
8008;DHT22;4049;49.468;11.200;2022-11-03T02:48:41;2.50;99.90
8008;DHT22;4049;49.468;11.200;2022-11-03T02:51:08;2.50;99.90
8008;DHT22;4049;49.468;11.200;2022-11-03T02:53:40;2.50;99.90
8008;DHT22;4049;49.468;11.200;2022-11-03T02:56:11;2.50;99.90
8008;DHT22;4049;49.468;11.200;2022-11-03T02:58:46;2.50;99.90
8008;DHT22;4049;49.468;11.200;2022-11-03T03:01:17;2.50;99.90
8008;DHT22;4049;49.468;11.200;2022-11-03T03:03:47;2.50;99.90
8008;DHT22;4049;49.468;11.200;2022-11-03T03:06:18;2.50;99.90
8008;DHT22;4049;49.468;11.200;2022-11-03T03:08:57;2.50;99.90
8008;DHT22;4049;49.468;11.200;2022-11-03T03:11:26;2.40;99.90
8008;DHT22;4049;49.468;11.200;2022-11-03T03:14:09;2.40;99.90
8008;DHT22;4049;49.468;11.200;2022-11-03T03:16:42;2.40;99.90
8008;DHT22;4049;49.468;11.200;2022-11-03T03:19:21;2.40;99.90
8008;DHT22;4049;49.468;11.200;2022-11-03T03:21:52;2.40;99.90
8008;DHT22;4049;49.468;11.200;2022-11-03T03:24:27;2.40;99.90
8008;DHT22;4049;49.468;11.200;2022-11-03T03:26:57;2.40;99.90
8008;DHT22;4049;49.468;11.200;2022-11-03T03:29:30;2.40;99.90
8008;DHT22;4049;49.468;11.200;2022-11-03T03:32:04;2.40;99.90
8008;DHT22;4049;49.468;11.200;2022-11-03T03:34:33;2.30;99.90
8008;DHT22;4049;49.468;11.200;2022-11-03T03:37:01;2.30;99.90
8008;DHT22;4049;49.468;11.200;2022-11-03T03:39:33;2.20;99.90
8008;DHT22;4049;49.468;11.200;2022-11-03T03:42:01;2.30;99.90
8008;DHT22;4049;49.468;11.200;2022-11-03T03:44:31;2.30;99.90
8008;DHT22;4049;49.468;11.200;2022-11-03T03:47:01;2.20;99.90
8008;DHT22;4049;49.468;11.200;2022-11-03T03:49:28;2.20;99.90
8008;DHT22;4049;49.468;11.200;2022-11-03T03:51:55;2.20;99.90
8008;DHT22;4049;49.468;11.200;2022-11-03T03:54:22;2.10;99.90
8008;DHT22;4049;49.468;11.200;2022-11-03T03:56:55;2.20;99.90
8008;DHT22;4049;49.468;11.200;2022-11-03T03:59:24;2.10;99.90
8008;DHT22;4049;49.468;11.200;2022-11-03T04:01:52;2.10;99.90
8008;DHT22;4049;49.468;11.200;2022-11-03T04:04:19;2.10;99.90
8008;DHT22;4049;49.468;11.200;2022-11-03T04:06:45;2.10;99.90
8008;DHT22;4049;49.468;11.200;2022-11-03T04:09:12;2.00;99.90
8008;DHT22;4049;49.468;11.200;2022-11-03T04:11:39;2.10;99.90
8008;DHT22;4049;49.468;11.200;2022-11-03T04:14:23;2.00;99.90
8008;DHT22;4049;49.468;11.200;2022-11-03T04:17:17;2.00;99.90
8008;DHT22;4049;49.468;11.200;2022-11-03T04:20:03;2.00;99.90
8008;DHT22;4049;49.468;11.200;2022-11-03T04:22:47;2.00;99.90
8008;DHT22;4049;49.468;11.200;2022-11-03T04:25:14;2.00;99.90
8008;DHT22;4049;49.468;11.200;2022-11-03T04:27:41;2.00;99.90
8008;DHT22;4049;49.468;11.200;2022-11-03T04:30:13;2.00;99.90
8008;DHT22;4049;49.468;11.200;2022-11-03T04:32:42;1.90;99.90
8008;DHT22;4049;49.468;11.200;2022-11-03T04:35:14;2.00;99.90
8008;DHT22;4049;49.468;11.200;2022-11-03T04:37:42;2.00;99.90
8008;DHT22;4049;49.468;11.200;2022-11-03T04:40:13;2.00;99.90
8008;DHT22;4049;49.468;11.200;2022-11-03T04:42:40;2.00;99.90
8008;DHT22;4049;49.468;11.200;2022-11-03T04:45:15;2.00;99.90
8008;DHT22;4049;49.468;11.200;2022-11-03T04:47:43;2.00;99.90
8008;DHT22;4049;49.468;11.200;2022-11-03T04:50:16;2.00;99.90
8008;DHT22;4049;49.468;11.200;2022-11-03T04:52:43;1.90;99.90
8008;DHT22;4049;49.468;11.200;2022-11-03T04:55:13;1.90;99.90
8008;DHT22;4049;49.468;11.200;2022-11-03T04:57:41;1.90;99.90
8008;DHT22;4049;49.468;11.200;2022-11-03T05:00:13;1.90;99.90
8008;DHT22;4049;49.468;11.200;2022-11-03T05:02:41;1.90;99.90
8008;DHT22;4049;49.468;11.200;2022-11-03T05:05:17;1.90;99.90
8008;DHT22;4049;49.468;11.200;2022-11-03T05:07:46;1.80;99.90
8008;DHT22;4049;49.468;11.200;2022-11-03T05:10:16;1.90;99.90
8008;DHT22;4049;49.468;11.200;2022-11-03T05:12:43;1.80;99.90
8008;DHT22;4049;49.468;11.200;2022-11-03T05:15:27;1.80;99.90
8008;DHT22;4049;49.468;11.200;2022-11-03T05:17:55;1.80;99.90
8008;DHT22;4049;49.468;11.200;2022-11-03T05:20:29;1.80;99.90
8008;DHT22;4049;49.468;11.200;2022-11-03T05:22:56;1.80;99.90
8008;DHT22;4049;49.468;11.200;2022-11-03T05:25:41;1.80;99.90
8008;DHT22;4049;49.468;11.200;2022-11-03T05:28:15;1.70;99.90
8008;DHT22;4049;49.468;11.200;2022-11-03T05:30:45;1.80;99.90
8008;DHT22;4049;49.468;11.200;2022-11-03T05:33:20;1.70;99.90
8008;DHT22;4049;49.468;11.200;2022-11-03T05:35:48;1.70;99.90
8008;DHT22;4049;49.468;11.200;2022-11-03T05:38:18;1.80;99.90
8008;DHT22;4049;49.468;11.200;2022-11-03T05:40:49;1.80;99.90
8008;DHT22;4049;49.468;11.200;2022-11-03T05:43:16;1.80;99.90
8008;DHT22;4049;49.468;11.200;2022-11-03T05:45:44;1.80;99.90
8008;DHT22;4049;49.468;11.200;2022-11-03T05:48:17;1.80;99.90
8008;DHT22;4049;49.468;11.200;2022-11-03T05:50:44;1.80;99.90
8008;DHT22;4049;49.468;11.200;2022-11-03T05:53:27;1.80;99.90
8008;DHT22;4049;49.468;11.200;2022-11-03T05:55:57;1.80;99.90
8008;DHT22;4049;49.468;11.200;2022-11-03T05:58:28;1.80;99.90
8008;DHT22;4049;49.468;11.200;2022-11-03T06:00:56;1.80;99.90
8008;DHT22;4049;49.468;11.200;2022-11-03T06:03:26;1.70;99.90
8008;DHT22;4049;49.468;11.200;2022-11-03T06:05:54;1.80;99.90
8008;DHT22;4049;49.468;11.200;2022-11-03T06:08:25;1.80;99.90
8008;DHT22;4049;49.468;11.200;2022-11-03T06:10:54;1.80;99.90
8008;DHT22;4049;49.468;11.200;2022-11-03T06:13:25;1.70;99.90
8008;DHT22;4049;49.468;11.200;2022-11-03T06:15:55;1.70;99.90
8008;DHT22;4049;49.468;11.200;2022-11-03T06:18:26;1.80;99.90
8008;DHT22;4049;49.468;11.200;2022-11-03T06:20:58;1.80;99.90
8008;DHT22;4049;49.468;11.200;2022-11-03T06:23:30;1.80;99.90
8008;DHT22;4049;49.468;11.200;2022-11-03T06:25:58;1.80;99.90
8008;DHT22;4049;49.468;11.200;2022-11-03T06:28:29;1.90;99.90
8008;DHT22;4049;49.468;11.200;2022-11-03T06:30:57;1.90;99.90
8008;DHT22;4049;49.468;11.200;2022-11-03T06:33:25;2.00;99.90
8008;DHT22;4049;49.468;11.200;2022-11-03T06:35:54;2.00;99.90
8008;DHT22;4049;49.468;11.200;2022-11-03T06:38:23;2.00;99.90
8008;DHT22;4049;49.468;11.200;2022-11-03T06:40:52;2.10;99.90
8008;DHT22;4049;49.468;11.200;2022-11-03T06:43:22;2.10;99.90
8008;DHT22;4049;49.468;11.200;2022-11-03T06:45:51;2.20;99.90
8008;DHT22;4049;49.468;11.200;2022-11-03T06:48:22;2.20;99.90
8008;DHT22;4049;49.468;11.200;2022-11-03T06:50:49;2.30;99.90
8008;DHT22;4049;49.468;11.200;2022-11-03T06:53:20;2.30;99.90
8008;DHT22;4049;49.468;11.200;2022-11-03T06:55:49;2.40;99.90
8008;DHT22;4049;49.468;11.200;2022-11-03T06:58:26;2.40;99.90
8008;DHT22;4049;49.468;11.200;2022-11-03T07:00:54;2.40;99.90
8008;DHT22;4049;49.468;11.200;2022-11-03T07:03:23;2.50;99.90
8008;DHT22;4049;49.468;11.200;2022-11-03T07:05:59;2.50;99.90
8008;DHT22;4049;49.468;11.200;2022-11-03T07:08:28;2.50;99.90
8008;DHT22;4049;49.468;11.200;2022-11-03T07:11:00;2.50;99.90
8008;DHT22;4049;49.468;11.200;2022-11-03T07:13:31;2.60;99.90
8008;DHT22;4049;49.468;11.200;2022-11-03T07:15:59;2.70;99.90
8008;DHT22;4049;49.468;11.200;2022-11-03T07:18:28;2.70;99.90
8008;DHT22;4049;49.468;11.200;2022-11-03T07:20:57;2.70;99.90
8008;DHT22;4049;49.468;11.200;2022-11-03T07:23:28;2.70;99.90
8008;DHT22;4049;49.468;11.200;2022-11-03T07:25:57;2.80;99.90
8008;DHT22;4049;49.468;11.200;2022-11-03T07:28:31;2.80;99.90
8008;DHT22;4049;49.468;11.200;2022-11-03T07:31:00;2.90;99.90
8008;DHT22;4049;49.468;11.200;2022-11-03T07:33:35;2.90;99.90
8008;DHT22;4049;49.468;11.200;2022-11-03T07:36:02;2.90;99.90
8008;DHT22;4049;49.468;11.200;2022-11-03T07:38:36;3.00;99.90
8008;DHT22;4049;49.468;11.200;2022-11-03T07:41:04;3.00;99.90
8008;DHT22;4049;49.468;11.200;2022-11-03T07:43:33;3.00;99.90
8008;DHT22;4049;49.468;11.200;2022-11-03T07:46:03;3.10;99.90
8008;DHT22;4049;49.468;11.200;2022-11-03T07:48:35;3.20;99.90
8008;DHT22;4049;49.468;11.200;2022-11-03T07:51:14;3.20;99.90
8008;DHT22;4049;49.468;11.200;2022-11-03T07:53:44;3.30;99.90
8008;DHT22;4049;49.468;11.200;2022-11-03T07:56:17;3.40;99.90
8008;DHT22;4049;49.468;11.200;2022-11-03T07:58:47;3.50;99.90
8008;DHT22;4049;49.468;11.200;2022-11-03T08:01:26;3.60;99.90
8008;DHT22;4049;49.468;11.200;2022-11-03T08:03:56;3.70;99.90
8008;DHT22;4049;49.468;11.200;2022-11-03T08:06:23;3.80;99.90
8008;DHT22;4049;49.468;11.200;2022-11-03T08:08:50;3.90;99.90
8008;DHT22;4049;49.468;11.200;2022-11-03T08:11:17;4.00;99.90
8008;DHT22;4049;49.468;11.200;2022-11-03T08:13:45;4.20;99.90
8008;DHT22;4049;49.468;11.200;2022-11-03T08:16:12;4.30;99.90
8008;DHT22;4049;49.468;11.200;2022-11-03T08:18:39;4.40;99.90
8008;DHT22;4049;49.468;11.200;2022-11-03T08:21:05;4.60;99.90
8008;DHT22;4049;49.468;11.200;2022-11-03T08:23:32;4.70;99.90
8008;DHT22;4049;49.468;11.200;2022-11-03T08:25:59;4.90;99.90
8008;DHT22;4049;49.468;11.200;2022-11-03T08:28:26;5.00;99.90
8008;DHT22;4049;49.468;11.200;2022-11-03T08:30:54;5.10;99.90
8008;DHT22;4049;49.468;11.200;2022-11-03T08:33:26;5.20;99.90
8008;DHT22;4049;49.468;11.200;2022-11-03T08:35:52;5.40;99.90
8008;DHT22;4049;49.468;11.200;2022-11-03T08:38:19;5.50;99.90
8008;DHT22;4049;49.468;11.200;2022-11-03T08:40:46;5.60;99.90
8008;DHT22;4049;49.468;11.200;2022-11-03T08:43:13;5.80;99.90
8008;DHT22;4049;49.468;11.200;2022-11-03T08:45:40;5.90;99.90
8008;DHT22;4049;49.468;11.200;2022-11-03T08:48:08;6.00;99.90
8008;DHT22;4049;49.468;11.200;2022-11-03T08:50:35;6.20;99.90
8008;DHT22;4049;49.468;11.200;2022-11-03T08:53:02;6.30;99.90
8008;DHT22;4049;49.468;11.200;2022-11-03T08:55:28;6.40;99.90
8008;DHT22;4049;49.468;11.200;2022-11-03T08:57:55;6.50;99.90
8008;DHT22;4049;49.468;11.200;2022-11-03T09:00:22;6.60;99.90
8008;DHT22;4049;49.468;11.200;2022-11-03T09:02:49;6.80;99.90
8008;DHT22;4049;49.468;11.200;2022-11-03T09:05:17;6.90;99.90
8008;DHT22;4049;49.468;11.200;2022-11-03T09:07:45;7.00;99.90
8008;DHT22;4049;49.468;11.200;2022-11-03T09:10:12;7.20;99.90
8008;DHT22;4049;49.468;11.200;2022-11-03T09:12:39;7.30;99.90
8008;DHT22;4049;49.468;11.200;2022-11-03T09:15:06;7.50;99.90
8008;DHT22;4049;49.468;11.200;2022-11-03T09:17:33;7.70;99.90
8008;DHT22;4049;49.468;11.200;2022-11-03T09:20:00;7.80;99.90
8008;DHT22;4049;49.468;11.200;2022-11-03T09:22:28;8.00;99.90
8008;DHT22;4049;49.468;11.200;2022-11-03T09:24:55;8.10;99.90
8008;DHT22;4049;49.468;11.200;2022-11-03T09:27:22;8.30;99.90
8008;DHT22;4049;49.468;11.200;2022-11-03T09:29:49;8.50;99.90
8008;DHT22;4049;49.468;11.200;2022-11-03T09:32:16;8.80;99.90
8008;DHT22;4049;49.468;11.200;2022-11-03T09:34:42;9.00;99.90
8008;DHT22;4049;49.468;11.200;2022-11-03T09:37:09;9.20;99.90
8008;DHT22;4049;49.468;11.200;2022-11-03T09:39:38;9.40;99.90
8008;DHT22;4049;49.468;11.200;2022-11-03T09:42:05;9.60;99.90
8008;DHT22;4049;49.468;11.200;2022-11-03T09:44:32;9.80;99.90
8008;DHT22;4049;49.468;11.200;2022-11-03T09:47:00;9.90;99.90
8008;DHT22;4049;49.468;11.200;2022-11-03T09:49:30;10.10;99.90
8008;DHT22;4049;49.468;11.200;2022-11-03T09:51:58;10.20;99.90
8008;DHT22;4049;49.468;11.200;2022-11-03T09:54:26;10.40;99.90
8008;DHT22;4049;49.468;11.200;2022-11-03T09:56:56;10.50;99.90
8008;DHT22;4049;49.468;11.200;2022-11-03T09:59:24;10.60;99.90
8008;DHT22;4049;49.468;11.200;2022-11-03T10:01:52;10.70;99.90
8008;DHT22;4049;49.468;11.200;2022-11-03T10:04:21;10.90;99.90
8008;DHT22;4049;49.468;11.200;2022-11-03T10:06:50;11.10;99.90
8008;DHT22;4049;49.468;11.200;2022-11-03T10:09:17;11.20;99.90
8008;DHT22;4049;49.468;11.200;2022-11-03T10:11:46;11.40;99.90
8008;DHT22;4049;49.468;11.200;2022-11-03T10:14:15;11.50;99.90
8008;DHT22;4049;49.468;11.200;2022-11-03T10:16:48;11.60;99.90
8008;DHT22;4049;49.468;11.200;2022-11-03T10:19:16;11.70;99.90
8008;DHT22;4049;49.468;11.200;2022-11-03T10:21:43;11.80;99.90
8008;DHT22;4049;49.468;11.200;2022-11-03T10:24:10;11.90;99.90
8008;DHT22;4049;49.468;11.200;2022-11-03T10:26:45;12.00;99.90
8008;DHT22;4049;49.468;11.200;2022-11-03T10:29:20;12.20;99.90
8008;DHT22;4049;49.468;11.200;2022-11-03T10:31:49;12.40;99.90
8008;DHT22;4049;49.468;11.200;2022-11-03T10:34:25;12.60;99.90
8008;DHT22;4049;49.468;11.200;2022-11-03T10:37:25;12.80;99.90
8008;DHT22;4049;49.468;11.200;2022-11-03T10:39:54;13.00;99.90
8008;DHT22;4049;49.468;11.200;2022-11-03T10:42:22;13.20;99.90
8008;DHT22;4049;49.468;11.200;2022-11-03T10:44:52;13.50;99.90
8008;DHT22;4049;49.468;11.200;2022-11-03T10:47:25;13.60;99.90
8008;DHT22;4049;49.468;11.200;2022-11-03T10:49:52;13.80;99.90
8008;DHT22;4049;49.468;11.200;2022-11-03T10:52:22;13.90;99.90
8008;DHT22;4049;49.468;11.200;2022-11-03T10:54:51;14.00;99.90
8008;DHT22;4049;49.468;11.200;2022-11-03T10:57:19;14.20;99.90
8008;DHT22;4049;49.468;11.200;2022-11-03T10:59:48;14.30;99.90
8008;DHT22;4049;49.468;11.200;2022-11-03T11:02:18;14.50;99.90
8008;DHT22;4049;49.468;11.200;2022-11-03T11:04:47;14.60;99.90
8008;DHT22;4049;49.468;11.200;2022-11-03T11:07:20;14.80;99.90
8008;DHT22;4049;49.468;11.200;2022-11-03T11:09:49;14.90;99.90
8008;DHT22;4049;49.468;11.200;2022-11-03T11:12:17;15.10;99.90
8008;DHT22;4049;49.468;11.200;2022-11-03T11:14:53;15.30;99.90
8008;DHT22;4049;49.468;11.200;2022-11-03T11:17:45;15.50;99.90
8008;DHT22;4049;49.468;11.200;2022-11-03T11:20:30;15.50;99.90
8008;DHT22;4049;49.468;11.200;2022-11-03T11:38:58;15.70;99.90
8008;DHT22;4049;49.468;11.200;2022-11-03T11:44:46;15.80;99.90
8008;DHT22;4049;49.468;11.200;2022-11-03T11:47:21;15.90;99.90
8008;DHT22;4049;49.468;11.200;2022-11-03T11:50:00;16.00;99.90
8008;DHT22;4049;49.468;11.200;2022-11-03T11:52:29;16.00;99.90
8008;DHT22;4049;49.468;11.200;2022-11-03T11:54:57;15.90;99.90
8008;DHT22;4049;49.468;11.200;2022-11-03T11:57:23;15.80;99.90
8008;DHT22;4049;49.468;11.200;2022-11-03T11:59:50;15.80;99.90
8008;DHT22;4049;49.468;11.200;2022-11-03T12:02:19;15.80;99.90
8008;DHT22;4049;49.468;11.200;2022-11-03T12:04:50;15.70;99.90
8008;DHT22;4049;49.468;11.200;2022-11-03T12:07:32;15.70;99.90
8008;DHT22;4049;49.468;11.200;2022-11-03T12:10:06;15.60;99.90
8008;DHT22;4049;49.468;11.200;2022-11-03T12:12:33;15.60;99.90
8008;DHT22;4049;49.468;11.200;2022-11-03T12:15:00;15.60;99.90
8008;DHT22;4049;49.468;11.200;2022-11-03T12:17:31;15.50;99.90
8008;DHT22;4049;49.468;11.200;2022-11-03T12:19:58;15.30;99.90
8008;DHT22;4049;49.468;11.200;2022-11-03T12:22:40;15.20;99.90
8008;DHT22;4049;49.468;11.200;2022-11-03T12:25:31;15.00;99.90
8008;DHT22;4049;49.468;11.200;2022-11-03T12:28:04;15.00;99.90
8008;DHT22;4049;49.468;11.200;2022-11-03T12:30:31;15.00;99.90
8008;DHT22;4049;49.468;11.200;2022-11-03T12:32:58;14.90;99.90
8008;DHT22;4049;49.468;11.200;2022-11-03T12:35:25;14.90;99.90
8008;DHT22;4049;49.468;11.200;2022-11-03T12:37:53;14.90;99.90
8008;DHT22;4049;49.468;11.200;2022-11-03T12:40:20;14.90;99.90
8008;DHT22;4049;49.468;11.200;2022-11-03T12:42:47;14.90;99.90
8008;DHT22;4049;49.468;11.200;2022-11-03T12:45:14;14.90;99.90
8008;DHT22;4049;49.468;11.200;2022-11-03T12:47:41;14.90;99.90
8008;DHT22;4049;49.468;11.200;2022-11-03T12:50:08;14.80;99.90
8008;DHT22;4049;49.468;11.200;2022-11-03T12:52:38;14.70;99.90
8008;DHT22;4049;49.468;11.200;2022-11-03T12:55:06;14.60;99.90
8008;DHT22;4049;49.468;11.200;2022-11-03T12:57:33;14.60;99.90
8008;DHT22;4049;49.468;11.200;2022-11-03T13:00:00;14.60;99.90
8008;DHT22;4049;49.468;11.200;2022-11-03T13:02:28;14.60;99.90
8008;DHT22;4049;49.468;11.200;2022-11-03T13:04:55;14.60;99.90
8008;DHT22;4049;49.468;11.200;2022-11-03T13:07:22;14.60;99.90
8008;DHT22;4049;49.468;11.200;2022-11-03T13:09:49;14.60;99.90
8008;DHT22;4049;49.468;11.200;2022-11-03T13:12:17;14.50;99.90
8008;DHT22;4049;49.468;11.200;2022-11-03T13:15:03;14.40;99.90
8008;DHT22;4049;49.468;11.200;2022-11-03T13:17:30;14.40;99.90
8008;DHT22;4049;49.468;11.200;2022-11-03T13:19:58;14.40;99.90
8008;DHT22;4049;49.468;11.200;2022-11-03T13:22:25;14.40;99.90
8008;DHT22;4049;49.468;11.200;2022-11-03T13:24:52;14.40;99.90
8008;DHT22;4049;49.468;11.200;2022-11-03T13:27:20;14.40;99.90
8008;DHT22;4049;49.468;11.200;2022-11-03T13:29:47;14.40;99.90
8008;DHT22;4049;49.468;11.200;2022-11-03T13:32:13;14.30;99.90
8008;DHT22;4049;49.468;11.200;2022-11-03T13:34:40;14.30;99.90
8008;DHT22;4049;49.468;11.200;2022-11-03T13:37:07;14.30;99.90
8008;DHT22;4049;49.468;11.200;2022-11-03T13:39:34;14.20;99.90
8008;DHT22;4049;49.468;11.200;2022-11-03T13:42:01;14.20;99.90
8008;DHT22;4049;49.468;11.200;2022-11-03T13:44:29;14.20;99.90
8008;DHT22;4049;49.468;11.200;2022-11-03T13:46:56;14.20;99.90
8008;DHT22;4049;49.468;11.200;2022-11-03T13:49:23;14.20;99.90
8008;DHT22;4049;49.468;11.200;2022-11-03T13:51:50;14.10;99.90
8008;DHT22;4049;49.468;11.200;2022-11-03T13:54:17;14.10;99.90
8008;DHT22;4049;49.468;11.200;2022-11-03T13:56:43;14.10;99.90
8008;DHT22;4049;49.468;11.200;2022-11-03T13:59:10;14.10;99.90
8008;DHT22;4049;49.468;11.200;2022-11-03T14:01:38;14.00;99.90
8008;DHT22;4049;49.468;11.200;2022-11-03T14:04:05;14.00;99.90
8008;DHT22;4049;49.468;11.200;2022-11-03T14:06:32;14.00;99.90
8008;DHT22;4049;49.468;11.200;2022-11-03T14:09:00;13.90;99.90
8008;DHT22;4049;49.468;11.200;2022-11-03T14:11:27;13.90;99.90
8008;DHT22;4049;49.468;11.200;2022-11-03T14:14:11;13.90;99.90
8008;DHT22;4049;49.468;11.200;2022-11-03T14:16:39;13.80;99.90
8008;DHT22;4049;49.468;11.200;2022-11-03T14:19:06;13.80;99.90
8008;DHT22;4049;49.468;11.200;2022-11-03T14:21:33;13.70;99.90
8008;DHT22;4049;49.468;11.200;2022-11-03T14:24:02;13.70;99.90
8008;DHT22;4049;49.468;11.200;2022-11-03T14:26:29;13.60;99.90
8008;DHT22;4049;49.468;11.200;2022-11-03T14:28:56;13.60;99.90
8008;DHT22;4049;49.468;11.200;2022-11-03T14:31:23;13.50;99.90
8008;DHT22;4049;49.468;11.200;2022-11-03T14:33:51;13.50;99.90
8008;DHT22;4049;49.468;11.200;2022-11-03T14:36:18;13.40;99.90
8008;DHT22;4049;49.468;11.200;2022-11-03T14:38:44;13.40;99.90
8008;DHT22;4049;49.468;11.200;2022-11-03T14:41:11;13.40;99.90
8008;DHT22;4049;49.468;11.200;2022-11-03T14:43:55;13.40;99.90
8008;DHT22;4049;49.468;11.200;2022-11-03T14:46:22;13.30;99.90
8008;DHT22;4049;49.468;11.200;2022-11-03T14:48:50;13.30;99.90
8008;DHT22;4049;49.468;11.200;2022-11-03T14:51:19;13.30;99.90
8008;DHT22;4049;49.468;11.200;2022-11-03T14:53:45;13.20;99.90
8008;DHT22;4049;49.468;11.200;2022-11-03T14:56:12;13.20;99.90
8008;DHT22;4049;49.468;11.200;2022-11-03T14:58:39;13.10;99.90
8008;DHT22;4049;49.468;11.200;2022-11-03T15:01:06;13.10;99.90
8008;DHT22;4049;49.468;11.200;2022-11-03T15:03:33;13.10;99.90
8008;DHT22;4049;49.468;11.200;2022-11-03T15:06:01;13.00;99.90
8008;DHT22;4049;49.468;11.200;2022-11-03T15:08:28;13.00;99.90
8008;DHT22;4049;49.468;11.200;2022-11-03T15:10:56;12.90;99.90
8008;DHT22;4049;49.468;11.200;2022-11-03T15:13:23;12.90;99.90
8008;DHT22;4049;49.468;11.200;2022-11-03T15:15:50;12.80;99.90
8008;DHT22;4049;49.468;11.200;2022-11-03T15:18:17;12.80;99.90
8008;DHT22;4049;49.468;11.200;2022-11-03T15:20:44;12.70;99.90
8008;DHT22;4049;49.468;11.200;2022-11-03T15:23:12;12.70;99.90
8008;DHT22;4049;49.468;11.200;2022-11-03T15:25:39;12.70;99.90
8008;DHT22;4049;49.468;11.200;2022-11-03T15:28:06;12.60;99.90
8008;DHT22;4049;49.468;11.200;2022-11-03T15:30:33;12.60;99.90
8008;DHT22;4049;49.468;11.200;2022-11-03T15:33:00;12.60;99.90
8008;DHT22;4049;49.468;11.200;2022-11-03T15:35:27;12.50;99.90
8008;DHT22;4049;49.468;11.200;2022-11-03T15:37:54;12.50;99.90
8008;DHT22;4049;49.468;11.200;2022-11-03T15:40:25;12.50;99.90
8008;DHT22;4049;49.468;11.200;2022-11-03T15:42:52;12.40;99.90
8008;DHT22;4049;49.468;11.200;2022-11-03T15:45:19;12.30;99.90
8008;DHT22;4049;49.468;11.200;2022-11-03T15:47:46;12.30;99.90
8008;DHT22;4049;49.468;11.200;2022-11-03T15:50:13;12.30;99.90
8008;DHT22;4049;49.468;11.200;2022-11-03T15:52:41;12.20;99.90
8008;DHT22;4049;49.468;11.200;2022-11-03T15:55:09;12.20;99.90
8008;DHT22;4049;49.468;11.200;2022-11-03T15:57:37;12.10;99.90
8008;DHT22;4049;49.468;11.200;2022-11-03T16:00:05;12.10;99.90
8008;DHT22;4049;49.468;11.200;2022-11-03T16:02:32;12.10;99.90
8008;DHT22;4049;49.468;11.200;2022-11-03T16:04:59;12.00;99.90
8008;DHT22;4049;49.468;11.200;2022-11-03T16:07:27;12.00;99.90
8008;DHT22;4049;49.468;11.200;2022-11-03T16:09:54;12.00;99.90
8008;DHT22;4049;49.468;11.200;2022-11-03T16:12:22;11.90;99.90
8008;DHT22;4049;49.468;11.200;2022-11-03T16:14:51;11.80;99.90
8008;DHT22;4049;49.468;11.200;2022-11-03T16:17:18;11.80;99.90
8008;DHT22;4049;49.468;11.200;2022-11-03T16:19:47;11.80;99.90
8008;DHT22;4049;49.468;11.200;2022-11-03T16:22:13;11.70;99.90
8008;DHT22;4049;49.468;11.200;2022-11-03T16:24:41;11.70;99.90
8008;DHT22;4049;49.468;11.200;2022-11-03T16:27:09;11.70;99.90
8008;DHT22;4049;49.468;11.200;2022-11-03T16:29:35;11.60;99.90